createdAt,value
2023-05-14T00:00:33.434Z,437.00
2023-05-14T00:01:33.435Z,438.00
2023-05-14T00:02:33.503Z,440.00
2023-05-14T00:03:33.479Z,442.00
2023-05-14T00:04:33.605Z,440.00
2023-05-14T00:05:33.437Z,440.00
2023-05-14T00:06:33.449Z,441.00
2023-05-14T00:07:33.435Z,440.00
2023-05-14T00:08:33.442Z,438.00
2023-05-14T00:09:33.519Z,438.00
2023-05-14T00:10:33.446Z,439.00
2023-05-14T00:11:33.444Z,440.00
2023-05-14T00:12:33.444Z,439.00
2023-05-14T00:13:33.393Z,438.00
2023-05-14T00:14:33.399Z,436.00
2023-05-14T00:15:34.560Z,437.00
2023-05-14T00:16:33.480Z,436.00
2023-05-14T00:17:33.478Z,436.00
2023-05-14T00:18:33.539Z,437.00
2023-05-14T00:19:33.442Z,436.00
2023-05-14T00:20:33.437Z,437.00
2023-05-14T00:21:33.461Z,436.00
2023-05-14T00:22:33.431Z,438.00
2023-05-14T00:23:33.437Z,438.00
2023-05-14T00:24:33.435Z,438.00
2023-05-14T00:25:33.441Z,441.00
2023-05-14T00:26:33.468Z,441.00
2023-05-14T00:27:33.437Z,442.00
2023-05-14T00:28:33.499Z,443.00
2023-05-14T00:29:33.434Z,444.00
2023-05-14T00:30:33.433Z,443.00
2023-05-14T00:31:33.466Z,443.00
2023-05-14T00:32:33.493Z,444.00
2023-05-14T00:33:33.436Z,443.00
2023-05-14T00:34:33.443Z,446.00
2023-05-14T00:35:33.445Z,449.00
2023-05-14T00:36:33.451Z,449.00
2023-05-14T00:37:33.429Z,449.00
2023-05-14T00:38:32.851Z,448.00
2023-05-14T00:39:33.436Z,449.00
2023-05-14T00:40:33.436Z,449.00
2023-05-14T00:41:33.457Z,448.00
2023-05-14T00:42:33.440Z,447.00
2023-05-14T00:43:33.432Z,446.00
2023-05-14T00:44:33.494Z,445.00
2023-05-14T00:45:33.444Z,445.00
2023-05-14T00:46:33.725Z,447.00
2023-05-14T00:47:33.463Z,448.00
2023-05-14T00:48:33.430Z,449.00
2023-05-14T00:49:33.469Z,451.00
2023-05-14T00:50:33.442Z,451.00
2023-05-14T00:51:33.439Z,449.00
2023-05-14T00:52:33.445Z,450.00
2023-05-14T00:53:33.440Z,446.00
2023-05-14T00:54:33.437Z,444.00
2023-05-14T00:55:33.444Z,446.00
2023-05-14T00:56:33.440Z,446.00
2023-05-14T00:57:33.455Z,447.00
2023-05-14T00:58:33.463Z,448.00
2023-05-14T00:59:33.447Z,449.00
2023-05-14T01:00:33.525Z,449.00
2023-05-14T01:01:33.468Z,449.00
2023-05-14T01:02:33.542Z,448.00
2023-05-14T01:03:33.604Z,450.00
2023-05-14T01:04:33.441Z,448.00
2023-05-14T01:05:33.429Z,449.00
2023-05-14T01:06:33.444Z,448.00
2023-05-14T01:07:33.432Z,449.00
2023-05-14T01:08:33.442Z,450.00
2023-05-14T01:09:33.444Z,449.00
2023-05-14T01:10:33.436Z,451.00
2023-05-14T01:11:33.504Z,452.00
2023-05-14T01:12:33.446Z,451.00
2023-05-14T01:13:33.455Z,452.00
2023-05-14T01:14:33.426Z,454.00
2023-05-14T01:15:33.500Z,452.00
2023-05-14T01:16:33.507Z,453.00
2023-05-14T01:17:33.448Z,452.00
2023-05-14T01:18:33.519Z,455.00
2023-05-14T01:19:33.452Z,454.00
2023-05-14T01:20:33.457Z,454.00
2023-05-14T01:21:33.451Z,453.00
2023-05-14T01:22:33.457Z,455.00
2023-05-14T01:23:33.469Z,453.00
2023-05-14T01:24:33.468Z,453.00
2023-05-14T01:25:33.467Z,452.00
2023-05-14T01:26:33.494Z,452.00
2023-05-14T01:27:33.488Z,451.00
2023-05-14T01:28:33.488Z,450.00
2023-05-14T01:29:33.485Z,444.00
2023-05-14T01:30:33.522Z,442.00
2023-05-14T01:31:33.542Z,441.00
2023-05-14T01:32:33.557Z,441.00
2023-05-14T01:33:33.489Z,441.00
2023-05-14T01:34:33.491Z,442.00
2023-05-14T01:35:33.496Z,442.00
2023-05-14T01:36:33.489Z,441.00
2023-05-14T01:37:33.491Z,445.00
2023-05-14T01:38:33.502Z,442.00
2023-05-14T01:39:33.522Z,442.00
2023-05-14T01:40:33.515Z,442.00
2023-05-14T01:41:33.528Z,442.00
2023-05-14T01:42:33.527Z,442.00
2023-05-14T01:43:33.569Z,443.00
2023-05-14T01:44:33.544Z,445.00
2023-05-14T01:45:33.575Z,446.00
2023-05-14T01:46:33.711Z,446.00
2023-05-14T01:47:33.565Z,443.00
2023-05-14T01:48:33.601Z,444.00
2023-05-14T01:49:33.579Z,445.00
2023-05-14T01:50:33.572Z,443.00
2023-05-14T01:51:33.572Z,445.00
2023-05-14T01:52:33.577Z,447.00
2023-05-14T01:53:33.585Z,447.00
2023-05-14T01:54:33.590Z,445.00
2023-05-14T01:55:33.594Z,445.00
2023-05-14T01:56:33.615Z,445.00
2023-05-14T01:57:33.613Z,445.00
2023-05-14T01:58:33.630Z,443.00
2023-05-14T01:59:33.632Z,445.00
2023-05-14T02:00:33.627Z,447.00
2023-05-14T02:01:33.693Z,447.00
2023-05-14T02:02:33.674Z,447.00
2023-05-14T02:03:33.678Z,446.00
2023-05-14T02:04:33.664Z,448.00
2023-05-14T02:05:33.642Z,446.00
2023-05-14T02:06:33.640Z,446.00
2023-05-14T02:07:33.661Z,444.00
2023-05-14T02:08:33.646Z,446.00
2023-05-14T02:09:33.650Z,445.00
2023-05-14T02:10:33.697Z,442.00
2023-05-14T02:11:33.688Z,443.00
2023-05-14T02:12:33.693Z,444.00
2023-05-14T02:13:33.701Z,442.00
2023-05-14T02:14:33.693Z,441.00
2023-05-14T02:15:33.706Z,443.00
2023-05-14T02:16:33.853Z,444.00
2023-05-14T02:17:33.733Z,444.00
2023-05-14T02:18:33.733Z,446.00
2023-05-14T02:19:33.729Z,449.00
2023-05-14T02:20:33.768Z,450.00
2023-05-14T02:21:33.735Z,452.00
2023-05-14T02:22:33.748Z,453.00
2023-05-14T02:23:40.907Z,453.00
2023-05-14T02:24:33.746Z,452.00
2023-05-14T02:25:33.745Z,452.00
2023-05-14T02:26:33.734Z,452.00
2023-05-14T02:27:33.722Z,454.00
2023-05-14T02:28:33.716Z,452.00
2023-05-14T02:29:33.716Z,452.00
2023-05-14T02:30:33.714Z,453.00
2023-05-14T02:31:33.804Z,454.00
2023-05-14T02:32:33.775Z,453.00
2023-05-14T02:33:33.733Z,455.00
2023-05-14T02:34:33.676Z,456.00
2023-05-14T02:35:33.679Z,456.00
2023-05-14T02:36:33.701Z,456.00
2023-05-14T02:37:33.678Z,456.00
2023-05-14T02:38:33.682Z,454.00
2023-05-14T02:39:33.666Z,450.00
2023-05-14T02:40:33.650Z,450.00
2023-05-14T02:41:33.651Z,450.00
2023-05-14T02:42:33.638Z,448.00
2023-05-14T02:43:33.658Z,446.00
2023-05-14T02:44:33.627Z,445.00
2023-05-14T02:45:33.621Z,447.00
2023-05-14T02:46:33.691Z,445.00
2023-05-14T02:47:34.832Z,443.00
2023-05-14T02:48:33.599Z,444.00
2023-05-14T02:49:33.602Z,447.00
2023-05-14T02:50:33.601Z,445.00
2023-05-14T02:51:33.585Z,444.00
2023-05-14T02:52:33.613Z,444.00
2023-05-14T02:53:33.588Z,445.00
2023-05-14T02:54:33.599Z,446.00
2023-05-14T02:55:33.574Z,445.00
2023-05-14T02:56:33.582Z,446.00
2023-05-14T02:57:33.569Z,447.00
2023-05-14T02:58:33.561Z,446.00
2023-05-14T02:59:33.560Z,450.00
2023-05-14T03:00:33.630Z,452.00
2023-05-14T03:01:33.555Z,451.00
2023-05-14T03:02:33.619Z,451.00
2023-05-14T03:03:33.550Z,451.00
2023-05-14T03:04:33.542Z,452.00
2023-05-14T03:05:33.538Z,448.00
2023-05-14T03:06:33.531Z,448.00
2023-05-14T03:07:33.521Z,449.00
2023-05-14T03:08:33.598Z,450.00
2023-05-14T03:09:34.218Z,450.00
2023-05-14T03:10:33.528Z,451.00
2023-05-14T03:11:33.538Z,452.00
2023-05-14T03:12:33.558Z,451.00
2023-05-14T03:13:33.578Z,449.00
2023-05-14T03:14:33.587Z,450.00
2023-05-14T03:15:33.601Z,449.00
2023-05-14T03:16:33.660Z,447.00
2023-05-14T03:17:33.641Z,446.00
2023-05-14T03:18:33.650Z,446.00
2023-05-14T03:19:33.636Z,444.00
2023-05-14T03:20:33.652Z,447.00
2023-05-14T03:21:33.668Z,448.00
2023-05-14T03:22:33.667Z,450.00
2023-05-14T03:23:33.665Z,448.00
2023-05-14T03:24:33.698Z,447.00
2023-05-14T03:25:33.686Z,448.00
2023-05-14T03:26:33.692Z,446.00
2023-05-14T03:27:33.712Z,448.00
2023-05-14T03:28:33.700Z,447.00
2023-05-14T03:29:33.708Z,448.00
2023-05-14T03:30:33.735Z,450.00
2023-05-14T03:31:33.748Z,450.00
2023-05-14T03:32:33.777Z,452.00
2023-05-14T03:33:33.739Z,452.00
2023-05-14T03:34:33.742Z,450.00
2023-05-14T03:35:33.751Z,448.00
2023-05-14T03:36:33.761Z,448.00
2023-05-14T03:37:33.770Z,449.00
2023-05-14T03:38:33.768Z,451.00
2023-05-14T03:39:33.785Z,450.00
2023-05-14T03:40:33.849Z,446.00
2023-05-14T03:41:33.855Z,444.00
2023-05-14T03:42:33.827Z,445.00
2023-05-14T03:43:33.841Z,444.00
2023-05-14T03:44:33.845Z,442.00
2023-05-14T03:45:33.866Z,440.00
2023-05-14T03:46:33.873Z,441.00
2023-05-14T03:47:33.926Z,441.00
2023-05-14T03:48:33.918Z,441.00
2023-05-14T03:49:33.893Z,440.00
2023-05-14T03:50:34.287Z,441.00
2023-05-14T03:51:34.265Z,440.00
2023-05-14T03:52:34.309Z,441.00
2023-05-14T03:53:34.320Z,444.00
2023-05-14T03:54:34.310Z,444.00
2023-05-14T03:55:34.307Z,445.00
2023-05-14T03:56:34.962Z,445.00
2023-05-14T03:57:34.315Z,444.00
2023-05-14T03:58:34.303Z,445.00
2023-05-14T03:59:34.306Z,447.00
2023-05-14T04:00:34.314Z,447.00
2023-05-14T04:01:34.311Z,446.00
2023-05-14T04:02:34.419Z,445.00
2023-05-14T04:03:34.410Z,447.00
2023-05-14T04:04:34.358Z,447.00
2023-05-14T04:05:34.311Z,448.00
2023-05-14T04:06:34.320Z,447.00
2023-05-14T04:07:34.329Z,447.00
2023-05-14T04:08:34.309Z,447.00
2023-05-14T04:09:34.305Z,448.00
2023-05-14T04:10:34.306Z,447.00
2023-05-14T04:11:34.312Z,446.00
2023-05-14T04:12:34.348Z,445.00
2023-05-14T04:13:34.310Z,444.00
2023-05-14T04:14:34.301Z,446.00
2023-05-14T04:15:34.310Z,445.00
2023-05-14T04:16:34.419Z,444.00
2023-05-14T04:17:35.147Z,443.00
2023-05-14T04:18:34.317Z,443.00
2023-05-14T04:19:34.303Z,443.00
2023-05-14T04:20:34.307Z,445.00
2023-05-14T04:21:34.331Z,444.00
2023-05-14T04:22:34.310Z,446.00
2023-05-14T04:23:34.316Z,449.00
2023-05-14T04:24:34.307Z,449.00
2023-05-14T04:25:34.304Z,450.00
2023-05-14T04:26:34.311Z,451.00
2023-05-14T04:27:34.313Z,450.00
2023-05-14T04:28:34.329Z,452.00
2023-05-14T04:29:34.308Z,452.00
2023-05-14T04:30:34.308Z,453.00
2023-05-14T04:31:34.326Z,453.00
2023-05-14T04:32:34.341Z,454.00
2023-05-14T04:33:34.311Z,451.00
2023-05-14T04:34:34.337Z,450.00
2023-05-14T04:35:34.341Z,449.00
2023-05-14T04:36:34.345Z,446.00
2023-05-14T04:37:34.360Z,446.00
2023-05-14T04:38:34.371Z,445.00
2023-05-14T04:39:34.378Z,446.00
2023-05-14T04:40:34.481Z,446.00
2023-05-14T04:41:34.409Z,447.00
2023-05-14T04:42:34.422Z,445.00
2023-05-14T04:43:34.436Z,444.00
2023-05-14T04:44:34.475Z,443.00
2023-05-14T04:45:34.531Z,443.00
2023-05-14T04:46:34.559Z,442.00
2023-05-14T04:47:34.496Z,440.00
2023-05-14T04:48:34.516Z,439.00
2023-05-14T04:49:34.525Z,440.00
2023-05-14T04:50:34.526Z,440.00
2023-05-14T04:51:34.523Z,440.00
2023-05-14T04:52:34.553Z,442.00
2023-05-14T04:53:34.542Z,445.00
2023-05-14T04:54:34.661Z,447.00
2023-05-14T04:55:34.567Z,446.00
2023-05-14T04:56:34.589Z,447.00
2023-05-14T04:57:34.596Z,445.00
2023-05-14T04:58:35.197Z,446.00
2023-05-14T04:59:34.638Z,445.00
2023-05-14T05:00:34.661Z,444.00
2023-05-14T05:01:34.728Z,443.00
2023-05-14T05:02:34.719Z,442.00
2023-05-14T05:03:34.701Z,444.00
2023-05-14T05:04:34.682Z,443.00
2023-05-14T05:05:34.690Z,444.00
2023-05-14T05:06:34.724Z,442.00
2023-05-14T05:07:34.714Z,442.00
2023-05-14T05:08:34.725Z,441.00
2023-05-14T05:09:34.751Z,440.00
2023-05-14T05:10:34.760Z,438.00
2023-05-14T05:11:34.767Z,439.00
2023-05-14T05:12:34.779Z,442.00
2023-05-14T05:13:34.782Z,442.00
2023-05-14T05:14:34.788Z,439.00
2023-05-14T05:15:34.795Z,440.00
2023-05-14T05:16:34.955Z,440.00
2023-05-14T05:17:34.864Z,440.00
2023-05-14T05:18:34.867Z,440.00
2023-05-14T05:19:43.144Z,443.00
2023-05-14T05:20:34.861Z,441.00
2023-05-14T05:21:34.862Z,442.00
2023-05-14T05:22:34.857Z,440.00
2023-05-14T05:23:34.847Z,442.00
2023-05-14T05:24:34.849Z,442.00
2023-05-14T05:25:34.853Z,445.00
2023-05-14T05:26:34.848Z,446.00
2023-05-14T05:27:34.853Z,445.00
2023-05-14T05:28:34.845Z,445.00
2023-05-14T05:29:34.836Z,444.00
2023-05-14T05:30:34.828Z,441.00
2023-05-14T05:31:34.857Z,441.00
2023-05-14T05:32:34.875Z,440.00
2023-05-14T05:33:34.816Z,443.00
2023-05-14T05:34:34.816Z,446.00
2023-05-14T05:35:34.812Z,448.00
2023-05-14T05:36:34.808Z,448.00
2023-05-14T05:37:34.812Z,448.00
2023-05-14T05:38:34.812Z,451.00
2023-05-14T05:39:35.076Z,451.00
2023-05-14T05:40:34.806Z,448.00
2023-05-14T05:41:34.806Z,449.00
2023-05-14T05:42:34.803Z,449.00
2023-05-14T05:43:34.830Z,451.00
2023-05-14T05:44:34.789Z,450.00
2023-05-14T05:45:34.787Z,449.00
2023-05-14T05:46:34.799Z,446.00
2023-05-14T05:47:34.883Z,447.00
2023-05-14T05:48:34.803Z,445.00
2023-05-14T05:49:34.776Z,444.00
2023-05-14T05:50:34.781Z,443.00
2023-05-14T05:51:34.786Z,443.00
2023-05-14T05:52:34.787Z,443.00
2023-05-14T05:53:34.784Z,445.00
2023-05-14T05:54:34.784Z,445.00
2023-05-14T05:55:34.784Z,446.00
2023-05-14T05:56:34.792Z,447.00
2023-05-14T05:57:34.800Z,449.00
2023-05-14T05:58:34.781Z,449.00
2023-05-14T05:59:34.798Z,449.00
2023-05-14T06:00:34.773Z,450.00
2023-05-14T06:01:34.782Z,449.00
2023-05-14T06:02:34.831Z,450.00
2023-05-14T06:03:34.783Z,450.00
2023-05-14T06:04:34.802Z,449.00
2023-05-14T06:05:34.778Z,448.00
2023-05-14T06:06:34.766Z,447.00
2023-05-14T06:07:34.759Z,444.00
2023-05-14T06:08:34.750Z,445.00
2023-05-14T06:09:34.766Z,446.00
2023-05-14T06:10:34.767Z,446.00
2023-05-14T06:11:34.797Z,445.00
2023-05-14T06:12:34.754Z,444.00
2023-05-14T06:13:34.753Z,445.00
2023-05-14T06:14:34.731Z,444.00
2023-05-14T06:15:34.728Z,445.00
2023-05-14T06:16:34.835Z,445.00
2023-05-14T06:17:34.756Z,448.00
2023-05-14T06:18:34.756Z,449.00
2023-05-14T06:19:34.724Z,449.00
2023-05-14T06:20:35.525Z,449.00
2023-05-14T06:21:34.734Z,451.00
2023-05-14T06:22:34.732Z,451.00
2023-05-14T06:23:34.740Z,448.00
2023-05-14T06:24:34.708Z,448.00
2023-05-14T06:25:34.701Z,449.00
2023-05-14T06:26:34.715Z,448.00
2023-05-14T06:27:34.711Z,446.00
2023-05-14T06:28:34.697Z,448.00
2023-05-14T06:29:34.705Z,447.00
2023-05-14T06:30:34.697Z,452.00
2023-05-14T06:31:34.742Z,450.00
2023-05-14T06:32:34.757Z,449.00
2023-05-14T06:33:34.680Z,449.00
2023-05-14T06:34:34.680Z,451.00
2023-05-14T06:35:34.682Z,449.00
2023-05-14T06:36:34.680Z,448.00
2023-05-14T06:37:34.658Z,451.00
2023-05-14T06:38:34.643Z,452.00
2023-05-14T06:39:34.639Z,450.00
2023-05-14T06:40:34.631Z,450.00
2023-05-14T06:41:34.625Z,450.00
2023-05-14T06:42:34.611Z,454.00
2023-05-14T06:43:34.606Z,453.00
2023-05-14T06:44:34.606Z,452.00
2023-05-14T06:45:34.596Z,451.00
2023-05-14T06:46:34.599Z,453.00
2023-05-14T06:47:34.617Z,452.00
2023-05-14T06:48:34.660Z,451.00
2023-05-14T06:49:34.623Z,451.00
2023-05-14T06:50:34.698Z,452.00
2023-05-14T06:51:34.632Z,451.00
2023-05-14T06:52:34.661Z,451.00
2023-05-14T06:53:34.654Z,450.00
2023-05-14T06:54:34.656Z,450.00
2023-05-14T06:55:34.657Z,447.00
2023-05-14T06:56:34.655Z,450.00
2023-05-14T06:57:34.668Z,451.00
2023-05-14T06:58:34.662Z,450.00
2023-05-14T06:59:34.676Z,449.00
2023-05-14T07:00:34.718Z,447.00
2023-05-14T07:01:34.743Z,447.00
2023-05-14T07:02:34.719Z,446.00
2023-05-14T07:03:34.696Z,445.00
2023-05-14T07:04:34.790Z,445.00
2023-05-14T07:05:34.752Z,446.00
2023-05-14T07:06:34.743Z,448.00
2023-05-14T07:07:34.731Z,449.00
2023-05-14T07:08:34.770Z,449.00
2023-05-14T07:09:34.758Z,449.00
2023-05-14T07:10:34.767Z,449.00
2023-05-14T07:11:34.756Z,449.00
2023-05-14T07:12:34.759Z,449.00
2023-05-14T07:13:34.754Z,450.00
2023-05-14T07:14:34.777Z,448.00
2023-05-14T07:15:34.787Z,448.00
2023-05-14T07:16:34.834Z,449.00
2023-05-14T07:17:34.787Z,448.00
2023-05-14T07:18:34.787Z,451.00
2023-05-14T07:19:34.765Z,451.00
2023-05-14T07:20:34.780Z,450.00
2023-05-14T07:21:34.780Z,450.00
2023-05-14T07:22:34.787Z,447.00
2023-05-14T07:23:34.786Z,446.00
2023-05-14T07:24:34.816Z,447.00
2023-05-14T07:25:34.810Z,450.00
2023-05-14T07:26:34.799Z,451.00
2023-05-14T07:27:34.799Z,451.00
2023-05-14T07:28:34.811Z,452.00
2023-05-14T07:29:34.806Z,453.00
2023-05-14T07:30:34.808Z,452.00
2023-05-14T07:31:34.884Z,452.00
2023-05-14T07:32:34.920Z,454.00
2023-05-14T07:33:34.817Z,452.00
2023-05-14T07:34:34.841Z,453.00
2023-05-14T07:35:34.828Z,451.00
2023-05-14T07:36:34.827Z,448.00
2023-05-14T07:37:34.842Z,447.00
2023-05-14T07:38:34.840Z,445.00
2023-05-14T07:39:34.846Z,444.00
2023-05-14T07:40:34.864Z,444.00
2023-05-14T07:41:34.847Z,446.00
2023-05-14T07:42:37.040Z,446.00
2023-05-14T07:43:34.846Z,446.00
2023-05-14T07:44:34.845Z,446.00
2023-05-14T07:45:34.806Z,445.00
2023-05-14T07:46:34.812Z,445.00
2023-05-14T07:47:34.902Z,447.00
2023-05-14T07:48:34.834Z,447.00
2023-05-14T07:49:34.768Z,446.00
2023-05-14T07:50:34.807Z,446.00
2023-05-14T07:51:34.782Z,444.00
2023-05-14T07:52:34.774Z,445.00
2023-05-14T07:53:34.760Z,447.00
2023-05-14T07:54:34.753Z,448.00
2023-05-14T07:55:34.743Z,447.00
2023-05-14T07:56:34.783Z,444.00
2023-05-14T07:57:34.726Z,444.00
2023-05-14T07:58:34.714Z,443.00
2023-05-14T07:59:34.703Z,441.00
2023-05-14T08:00:34.700Z,443.00
2023-05-14T08:01:34.703Z,444.00
2023-05-14T08:03:33.722Z,447.00
2023-05-14T08:04:34.721Z,446.00
2023-05-14T08:05:34.663Z,445.00
2023-05-14T08:06:34.660Z,442.00
2023-05-14T08:07:34.679Z,441.00
2023-05-14T08:08:34.668Z,439.00
2023-05-14T08:09:34.633Z,439.00
2023-05-14T08:10:34.671Z,438.00
2023-05-14T08:11:34.620Z,439.00
2023-05-14T08:12:34.644Z,439.00
2023-05-14T08:13:34.623Z,438.00
2023-05-14T08:14:34.611Z,439.00
2023-05-14T08:15:34.596Z,439.00
2023-05-14T08:16:34.749Z,438.00
2023-05-14T08:17:34.659Z,439.00
2023-05-14T08:18:34.645Z,439.00
2023-05-14T08:19:34.592Z,441.00
2023-05-14T08:20:34.600Z,445.00
2023-05-14T08:21:34.585Z,445.00
2023-05-14T08:22:34.592Z,446.00
2023-05-14T08:23:34.589Z,445.00
2023-05-14T08:24:34.581Z,444.00
2023-05-14T08:25:34.570Z,441.00
2023-05-14T08:26:34.567Z,442.00
2023-05-14T08:27:34.567Z,443.00
2023-05-14T08:28:34.590Z,445.00
2023-05-14T08:29:34.554Z,446.00
2023-05-14T08:30:34.735Z,443.00
2023-05-14T08:31:34.542Z,442.00
2023-05-14T08:32:34.572Z,444.00
2023-05-14T08:33:34.539Z,443.00
2023-05-14T08:34:34.548Z,443.00
2023-05-14T08:35:34.540Z,441.00
2023-05-14T08:36:34.519Z,441.00
2023-05-14T08:37:34.530Z,439.00
2023-05-14T08:38:34.558Z,439.00
2023-05-14T08:39:34.514Z,439.00
2023-05-14T08:40:34.514Z,439.00
2023-05-14T08:41:34.508Z,441.00
2023-05-14T08:42:34.518Z,443.00
2023-05-14T08:43:34.506Z,446.00
2023-05-14T08:44:34.541Z,445.00
2023-05-14T08:45:34.525Z,445.00
2023-05-14T08:46:34.484Z,445.00
2023-05-14T08:47:34.525Z,444.00
2023-05-14T08:48:34.743Z,444.00
2023-05-14T08:49:34.530Z,445.00
2023-05-14T08:50:34.575Z,446.00
2023-05-14T08:51:34.594Z,448.00
2023-05-14T08:52:34.668Z,452.00
2023-05-14T08:53:34.656Z,453.00
2023-05-14T08:54:34.757Z,452.00
2023-05-14T08:55:34.738Z,450.00
2023-05-14T08:56:34.785Z,449.00
2023-05-14T08:57:34.819Z,448.00
2023-05-14T08:58:34.857Z,447.00
2023-05-14T08:59:34.913Z,447.00
2023-05-14T09:00:34.982Z,447.00
2023-05-14T09:01:35.046Z,449.00
2023-05-14T09:02:35.183Z,448.00
2023-05-14T09:03:35.122Z,447.00
2023-05-14T09:04:35.228Z,446.00
2023-05-14T09:05:35.189Z,445.00
2023-05-14T09:06:35.232Z,445.00
2023-05-14T09:07:35.264Z,445.00
2023-05-14T09:08:35.297Z,445.00
2023-05-14T09:09:35.345Z,446.00
2023-05-14T09:10:35.381Z,447.00
2023-05-14T09:11:35.424Z,448.00
2023-05-14T09:12:35.474Z,450.00
2023-05-14T09:13:35.532Z,451.00
2023-05-14T09:14:35.584Z,452.00
2023-05-14T09:15:35.629Z,452.00
2023-05-14T09:16:35.807Z,450.00
2023-05-14T09:17:35.826Z,448.00
2023-05-14T09:18:35.835Z,446.00
2023-05-14T09:19:35.853Z,447.00
2023-05-14T09:20:35.897Z,446.00
2023-05-14T09:21:35.922Z,446.00
2023-05-14T09:22:35.972Z,445.00
2023-05-14T09:23:35.999Z,443.00
2023-05-14T09:24:36.053Z,443.00
2023-05-14T09:25:36.124Z,444.00
2023-05-14T09:26:36.151Z,443.00
2023-05-14T09:27:36.179Z,444.00
2023-05-14T09:28:36.218Z,445.00
2023-05-14T09:29:36.239Z,447.00
2023-05-14T09:30:36.269Z,447.00
2023-05-14T09:31:36.466Z,447.00
2023-05-14T09:32:36.388Z,447.00
2023-05-14T09:33:36.397Z,446.00
2023-05-14T09:34:36.422Z,446.00
2023-05-14T09:35:36.467Z,446.00
2023-05-14T09:36:36.501Z,444.00
2023-05-14T09:37:36.521Z,443.00
2023-05-14T09:38:36.618Z,444.00
2023-05-14T09:39:36.611Z,443.00
2023-05-14T09:40:36.643Z,441.00
2023-05-14T09:41:36.697Z,442.00
2023-05-14T09:42:36.737Z,442.00
2023-05-14T09:43:36.794Z,442.00
2023-05-14T09:44:36.839Z,441.00
2023-05-14T09:45:36.911Z,441.00
2023-05-14T09:46:36.965Z,443.00
2023-05-14T09:47:37.136Z,439.00
2023-05-14T09:48:37.089Z,438.00
2023-05-14T09:49:37.078Z,435.00
2023-05-14T09:50:37.137Z,435.00
2023-05-14T09:51:37.187Z,436.00
2023-05-14T09:52:37.297Z,441.00
2023-05-14T09:53:37.290Z,440.00
2023-05-14T09:54:37.348Z,440.00
2023-05-14T09:55:37.414Z,440.00
2023-05-14T09:56:37.470Z,443.00
2023-05-14T09:57:37.537Z,446.00
2023-05-14T09:58:37.593Z,445.00
2023-05-14T09:59:37.635Z,443.00
2023-05-14T10:00:37.671Z,442.00
2023-05-14T10:01:37.906Z,444.00
2023-05-14T10:02:38.199Z,441.00
2023-05-14T10:03:37.799Z,440.00
2023-05-14T10:04:37.892Z,440.00
2023-05-14T10:05:37.895Z,437.00
2023-05-14T10:06:37.929Z,439.00
2023-05-14T10:07:37.985Z,436.00
2023-05-14T10:08:38.040Z,436.00
2023-05-14T10:09:38.089Z,435.00
2023-05-14T10:10:38.157Z,437.00
2023-05-14T10:11:38.317Z,439.00
2023-05-14T10:12:38.269Z,439.00
2023-05-14T10:13:38.306Z,440.00
2023-05-14T10:14:38.369Z,441.00
2023-05-14T10:15:38.396Z,443.00
2023-05-14T10:16:38.565Z,444.00
2023-05-14T10:17:38.523Z,443.00
2023-05-14T10:18:38.589Z,441.00
2023-05-14T10:19:38.597Z,443.00
2023-05-14T10:20:38.673Z,441.00
2023-05-14T10:21:38.679Z,441.00
2023-05-14T10:22:38.728Z,442.00
2023-05-14T10:23:38.775Z,442.00
2023-05-14T10:24:38.824Z,443.00
2023-05-14T10:25:38.863Z,445.00
2023-05-14T10:26:38.913Z,446.00
2023-05-14T10:27:38.946Z,444.00
2023-05-14T10:28:38.991Z,444.00
2023-05-14T10:29:39.049Z,444.00
2023-05-14T10:30:39.075Z,444.00
2023-05-14T10:31:39.150Z,446.00
2023-05-14T10:32:39.180Z,443.00
2023-05-14T10:33:39.187Z,440.00
2023-05-14T10:34:39.636Z,441.00
2023-05-14T10:35:39.609Z,439.00
2023-05-14T10:36:39.657Z,439.00
2023-05-14T10:37:39.615Z,438.00
2023-05-14T10:38:39.618Z,436.00
2023-05-14T10:39:39.608Z,436.00
2023-05-14T10:40:39.623Z,437.00
2023-05-14T10:41:39.615Z,439.00
2023-05-14T10:42:39.649Z,442.00
2023-05-14T10:43:39.615Z,441.00
2023-05-14T10:44:39.642Z,441.00
2023-05-14T10:45:39.693Z,441.00
2023-05-14T10:46:40.162Z,440.00
2023-05-14T10:47:39.921Z,436.00
2023-05-14T10:48:39.808Z,437.00
2023-05-14T10:49:43.915Z,438.00
2023-05-14T10:50:39.848Z,440.00
2023-05-14T10:51:39.874Z,438.00
2023-05-14T10:52:39.863Z,436.00
2023-05-14T10:53:39.803Z,434.00
2023-05-14T10:54:39.851Z,435.00
2023-05-14T10:55:39.872Z,436.00
2023-05-14T10:56:39.926Z,434.00
2023-05-14T10:57:39.964Z,433.00
2023-05-14T10:58:39.991Z,433.00
2023-05-14T10:59:40.039Z,432.00
2023-05-14T11:00:40.074Z,431.00
2023-05-14T11:01:40.539Z,432.00
2023-05-14T11:02:40.615Z,433.00
2023-05-14T11:03:40.542Z,431.00
2023-05-14T11:04:40.552Z,432.00
2023-05-14T11:05:40.526Z,431.00
2023-05-14T11:06:40.538Z,432.00
2023-05-14T11:07:40.555Z,433.00
2023-05-14T11:08:40.576Z,433.00
2023-05-14T11:09:40.547Z,434.00
2023-05-14T11:10:40.538Z,434.00
2023-05-14T11:11:40.536Z,433.00
2023-05-14T11:12:40.563Z,434.00
2023-05-14T11:13:40.597Z,432.00
2023-05-14T11:14:40.623Z,431.00
2023-05-14T11:15:40.655Z,431.00
2023-05-14T11:16:40.710Z,428.00
2023-05-14T11:17:40.765Z,428.00
2023-05-14T11:18:40.858Z,428.00
2023-05-14T11:19:40.830Z,429.00
2023-05-14T11:20:40.867Z,428.00
2023-05-14T11:21:40.944Z,428.00
2023-05-14T11:22:40.964Z,429.00
2023-05-14T11:23:40.977Z,430.00
2023-05-14T11:24:41.034Z,430.00
2023-05-14T11:25:41.044Z,432.00
2023-05-14T11:26:41.195Z,433.00
2023-05-14T11:27:41.134Z,432.00
2023-05-14T11:28:41.163Z,433.00
2023-05-14T11:29:41.215Z,433.00
2023-05-14T11:30:41.246Z,434.00
2023-05-14T11:31:41.286Z,437.00
2023-05-14T11:32:41.344Z,443.00
2023-05-14T11:33:41.358Z,447.00
2023-05-14T11:34:41.394Z,449.00
2023-05-14T11:35:41.426Z,448.00
2023-05-14T11:36:41.473Z,449.00
2023-05-14T11:37:41.505Z,447.00
2023-05-14T11:38:41.534Z,447.00
2023-05-14T11:39:41.579Z,449.00
2023-05-14T11:40:41.718Z,449.00
2023-05-14T11:41:41.654Z,449.00
2023-05-14T11:42:41.696Z,450.00
2023-05-14T11:43:41.737Z,450.00
2023-05-14T11:44:41.786Z,454.00
2023-05-14T11:45:41.880Z,455.00
2023-05-14T11:46:41.884Z,455.00
2023-05-14T11:47:42.002Z,452.00
2023-05-14T11:48:41.932Z,450.00
2023-05-14T11:49:41.983Z,451.00
2023-05-14T11:50:42.022Z,451.00
2023-05-14T11:51:42.048Z,450.00
2023-05-14T11:52:42.107Z,450.00
2023-05-14T11:53:42.156Z,448.00
2023-05-14T11:54:42.205Z,447.00
2023-05-14T11:55:42.233Z,446.00
2023-05-14T11:56:43.134Z,446.00
2023-05-14T11:57:42.328Z,446.00
2023-05-14T11:58:42.343Z,449.00
2023-05-14T11:59:42.374Z,449.00
2023-05-14T12:00:42.419Z,450.00
2023-05-14T12:01:42.457Z,451.00
2023-05-14T12:02:42.580Z,451.00
2023-05-14T12:03:42.643Z,452.00
2023-05-14T12:04:42.641Z,451.00
2023-05-14T12:05:42.611Z,451.00
2023-05-14T12:06:42.640Z,451.00
2023-05-14T12:07:42.688Z,453.00
2023-05-14T12:08:42.717Z,453.00
2023-05-14T12:09:44.439Z,451.00
2023-05-14T12:10:42.748Z,451.00
2023-05-14T12:11:42.730Z,451.00
2023-05-14T12:12:42.743Z,448.00
2023-05-14T12:13:42.707Z,446.00
2023-05-14T12:14:42.748Z,446.00
2023-05-14T12:15:43.164Z,447.00
2023-05-14T12:16:42.869Z,446.00
2023-05-14T12:17:42.694Z,445.00
2023-05-14T12:18:42.776Z,444.00
2023-05-14T12:19:42.640Z,446.00
2023-05-14T12:20:42.635Z,446.00
2023-05-14T12:21:43.669Z,446.00
2023-05-14T12:22:42.605Z,447.00
2023-05-14T12:23:42.597Z,446.00
2023-05-14T12:24:42.584Z,445.00
2023-05-14T12:25:42.572Z,445.00
2023-05-14T12:26:42.557Z,445.00
2023-05-14T12:27:42.593Z,444.00
2023-05-14T12:28:42.592Z,446.00
2023-05-14T12:29:42.519Z,445.00